Phoenix, Arizona
Current Conditions -  °F | °C
As of 12:51 PM on Thursday 18 Dec 2014 (Local Time) from KPHX Reporting Station
Broken Clouds Broken Clouds  
Wind Chill: 15°   Ceiling: 10000
Heat Index: 15°   Visibility: 10mi
Dew Point:   Wind: 0mph
Humidity: 60%   Direction: NA
Pressure: 30.1"   Gusts: NA
Location:  33.45°N, 112.08°W
Report Text: KPHX 181951Z 00000KT 10SM SCT029 SCT085 BKN100 15/07 A3010 RMK AO2 SLP186 T01500072
Loading
Personal Weather Stations






























Interactive Weather Map New forecast layout! Learn more

10-Day Weather Forecast

Advertisements
Track Severe Weather on mobile